Station Historical Data
Daily Summary for March 1, 2018 Units:  Metric    English   Both
« Previous Day
Next Day »
Daily Weekly Monthly Yearly Custom
  High: Low: Average:
Temperature: 4.6 °C -0.3 °C 2 °C
Dew Point: 1.3 °C -1.8 °C -0.4 °C
Humidity: 90% 76% 84%
Wind Speed: 30.6km/h 1.6km/h 10.6km/h
Wind Gust: 41.8km/h - -
Wind- - NE
Pressure: 1014.4 hPa 1003.9 hPa -
Precipitation: 0 mm    
Historical Graphs
 
 
Tabular Data for March 1, 2018
Time Temperature Dew Point Pressure Wind Wind Speed Wind Gust Humidity Rainfall Rate (Hourly)
00:04 4.6 °C 1.3 °C 1012.8 hPa NNE 3.2 km/h 8 km/h 79% 0 mm
00:09 4.4 °C 1.1 °C 1012.8 hPa North 3.2 km/h 8 km/h 79% 0 mm
00:19 4 °C 0.8 °C 1012.8 hPa North 4.8 km/h 11.3 km/h 80% 0 mm
00:24 3.8 °C 0.7 °C 1012.8 hPa North 4.8 km/h 11.3 km/h 80% 0 mm
00:29 3.6 °C 0.7 °C 1012.8 hPa North 4.8 km/h 11.3 km/h 81% 0 mm
00:34 3.4 °C 0.4 °C 1012.8 hPa North 4.8 km/h 11.3 km/h 81% 0 mm
00:39 3.2 °C 0.4 °C 1012.8 hPa NNE 8 km/h 12.9 km/h 82% 0 mm
00:44 2.9 °C 0.2 °C 1012.8 hPa NNW 11.3 km/h 11.3 km/h 82% 0 mm
00:49 2.8 °C 0.2 °C 1012.8 hPa NNE 6.4 km/h 11.3 km/h 83% 0 mm
00:54 2.6 °C 0 °C 1012.8 hPa NNE 4.8 km/h 12.9 km/h 83% 0 mm
00:59 2.4 °C 0 °C 1013.1 hPa North 4.8 km/h 12.9 km/h 84% 0 mm
01:04 2.3 °C 0.1 °C 1013.1 hPa NNE 6.4 km/h 12.9 km/h 85% 0 mm
01:14 2.3 °C 0.1 °C 1013.1 hPa NNE 3.2 km/h 11.3 km/h 85% 0 mm
01:19 2.3 °C 0.2 °C 1013.1 hPa North 6.4 km/h 11.3 km/h 86% 0 mm
01:24 2.3 °C 0.2 °C 1013.1 hPa North 4.8 km/h 11.3 km/h 86% 0 mm
01:29 2.4 °C 0.3 °C 1013.4 hPa NNE 4.8 km/h 9.7 km/h 86% 0 mm
01:34 2.3 °C 0.2 °C 1013.4 hPa NE 4.8 km/h 14.5 km/h 86% 0 mm
01:39 2.3 °C 0.3 °C 1013.4 hPa NE 6.4 km/h 14.5 km/h 87% 0 mm
01:44 2.2 °C 0.3 °C 1013.4 hPa NE 6.4 km/h 11.3 km/h 87% 0 mm
01:54 2.3 °C 0.3 °C 1013.8 hPa NE 4.8 km/h 6.4 km/h 87% 0 mm
01:59 2.3 °C 0.3 °C 1013.8 hPa NE 3.2 km/h 9.7 km/h 87% 0 mm
02:04 2.2 °C 0.3 °C 1013.4 hPa NNE 4.8 km/h 9.7 km/h 87% 0 mm
02:09 2.3 °C 0.3 °C 1013.8 hPa NNE 4.8 km/h 9.7 km/h 87% 0 mm
02:14 2.3 °C 0.3 °C 1013.4 hPa NNE 4.8 km/h 8 km/h 87% 0 mm
02:19 2.2 °C 0.3 °C 1013.8 hPa NE 3.2 km/h 11.3 km/h 87% 0 mm
02:24 2.2 °C 0.4 °C 1013.4 hPa NE 4.8 km/h 8 km/h 88% 0 mm
02:29 2.2 °C 0.4 °C 1013.4 hPa NE 1.6 km/h 6.4 km/h 88% 0 mm
02:34 2.2 °C 0.4 °C 1013.4 hPa NE 3.2 km/h 8 km/h 88% 0 mm
02:44 2.2 °C 0.4 °C 1013.1 hPa NNE 4.8 km/h 9.7 km/h 88% 0 mm
02:49 2.3 °C 0.5 °C 1013.4 hPa NE 6.4 km/h 9.7 km/h 88% 0 mm
02:54 2.3 °C 0.5 °C 1013.1 hPa ENE 6.4 km/h 14.5 km/h 88% 0 mm
02:59 2.2 °C 0.4 °C 1013.1 hPa NE 6.4 km/h 14.5 km/h 88% 0 mm
03:09 2.3 °C 0.5 °C 1013.1 hPa NNE 6.4 km/h 11.3 km/h 88% 0 mm
03:14 2.3 °C 0.5 °C 1013.1 hPa NE 6.4 km/h 16.1 km/h 88% 0 mm
03:19 2.2 °C 0.3 °C 1013.1 hPa NNE 6.4 km/h 16.1 km/h 87% 0 mm
03:24 2.2 °C 0.2 °C 1013.1 hPa NNE 4.8 km/h 9.7 km/h 87% 0 mm
03:29 2.2 °C 0.2 °C 1013.1 hPa North 4.8 km/h 8 km/h 87% 0 mm
03:34 2.2 °C 0.2 °C 1013.1 hPa NNE 4.8 km/h 12.9 km/h 87% 0 mm
03:39 2.1 °C 0.2 °C 1013.1 hPa NE 6.4 km/h 11.3 km/h 87% 0 mm
03:44 2.2 °C 0.2 °C 1013.1 hPa NNE 6.4 km/h 11.3 km/h 87% 0 mm
03:49 2.2 °C 0.2 °C 1013.1 hPa NNE 4.8 km/h 11.3 km/h 87% 0 mm
03:54 2.1 °C 0.2 °C 1013.1 hPa North 3.2 km/h 8 km/h 87% 0 mm
03:59 2.1 °C 0.2 °C 1013.1 hPa NNE 3.2 km/h 8 km/h 87% 0 mm
04:09 2.1 °C 0.2 °C 1013.1 hPa NNE 3.2 km/h 6.4 km/h 87% 0 mm
04:14 2.1 °C 0.2 °C 1013.1 hPa NE 4.8 km/h 9.7 km/h 87% 0 mm
04:19 2.1 °C 0.2 °C 1013.4 hPa NNE 8 km/h 8 km/h 87% 0 mm
04:24 2.1 °C 0.2 °C 1013.8 hPa NE 4.8 km/h 9.7 km/h 87% 0 mm
04:29 2.1 °C 0.2 °C 1013.8 hPa NE 3.2 km/h 4.8 km/h 87% 0 mm
04:34 2.1 °C 0 °C 1013.8 hPa NNE 1.6 km/h 8 km/h 86% 0 mm
04:39 2.1 °C 0.2 °C 1013.8 hPa NNE 3.2 km/h 4.8 km/h 87% 0 mm
04:44 2.1 °C 0 °C 1013.8 hPa NE 1.6 km/h 9.7 km/h 86% 0 mm
04:54 2.1 °C -0.1 °C 1013.4 hPa NE 6.4 km/h 11.3 km/h 86% 0 mm
04:59 2.1 °C -0.1 °C 1013.8 hPa NE 4.8 km/h 11.3 km/h 86% 0 mm
05:04 2.1 °C -0.1 °C 1014.1 hPa NE 3.2 km/h 8 km/h 86% 0 mm
05:09 2.1 °C -0.1 °C 1014.1 hPa NE 3.2 km/h 6.4 km/h 86% 0 mm
05:14 2.1 °C -0.1 °C 1014.4 hPa NNE 3.2 km/h 6.4 km/h 86% 0 mm
05:19 2 °C -0.1 °C 1013.8 hPa NNE 4.8 km/h 8 km/h 86% 0 mm
05:24 2 °C -0.1 °C 1013.8 hPa NNE 4.8 km/h 8 km/h 86% 0 mm
05:34 2 °C -0.1 °C 1013.4 hPa NE 6.4 km/h 9.7 km/h 86% 0 mm
05:39 1.9 °C -0.2 °C 1013.4 hPa NNE 6.4 km/h 12.9 km/h 86% 0 mm
05:44 1.9 °C 0 °C 1013.4 hPa NE 6.4 km/h 17.7 km/h 87% 0 mm
05:54 1.9 °C -0.1 °C 1012.8 hPa NE 6.4 km/h 19.3 km/h 87% 0 mm
05:59 1.9 °C -0.1 °C 1013.1 hPa NE 8 km/h 19.3 km/h 87% 0 mm
06:04 1.9 °C -0.1 °C 1013.1 hPa NE 9.7 km/h 11.3 km/h 87% 0 mm
06:19 1.9 °C -0.1 °C 1013.4 hPa ENE 6.4 km/h 14.5 km/h 87% 0 mm
06:24 1.9 °C -0.1 °C 1013.4 hPa NE 8 km/h 16.1 km/h 87% 0 mm
06:29 1.9 °C -0.1 °C 1013.4 hPa NE 8 km/h 16.1 km/h 87% 0 mm
06:39 1.9 °C 0.2 °C 1013.4 hPa NE 8 km/h 22.5 km/h 88% 0 mm
06:44 2 °C 0.2 °C 1013.4 hPa NE 9.7 km/h 14.5 km/h 88% 0 mm
06:49 2.1 °C 0.3 °C 1013.4 hPa East 12.9 km/h 14.5 km/h 88% 0 mm
06:54 2.1 °C 0.3 °C 1013.4 hPa NE 8 km/h 17.7 km/h 88% 0 mm
06:59 2 °C 0.2 °C 1013.4 hPa ENE 9.7 km/h 17.7 km/h 88% 0 mm
07:09 2.1 °C 0.3 °C 1013.1 hPa ENE 6.4 km/h 17.7 km/h 88% 0 mm
07:14 2.2 °C 0.2 °C 1013.1 hPa ENE 4.8 km/h 17.7 km/h 87% 0 mm
07:19 2.1 °C 0.2 °C 1013.1 hPa ENE 8 km/h 17.7 km/h 87% 0 mm
07:24 2.2 °C 0.2 °C 1013.1 hPa ESE 6.4 km/h 16.1 km/h 87% 0 mm
07:29 2.2 °C 0.2 °C 1012.8 hPa ENE 8 km/h 16.1 km/h 87% 0 mm
07:34 2.2 °C 0.2 °C 1013.1 hPa ENE 8 km/h 19.3 km/h 87% 0 mm
07:39 2.2 °C 0.2 °C 1013.1 hPa ENE 8 km/h 19.3 km/h 87% 0 mm
07:44 2.2 °C 0.2 °C 1012.8 hPa ENE 9.7 km/h 19.3 km/h 87% 0 mm
07:54 2.3 °C 0.3 °C 1012.8 hPa NE 8 km/h 20.9 km/h 87% 0 mm
07:59 2.3 °C 0.3 °C 1012.8 hPa NE 9.7 km/h 20.9 km/h 87% 0 mm
08:04 2.3 °C 0.3 °C 1013.1 hPa NE 11.3 km/h 22.5 km/h 87% 0 mm
08:09 2.3 °C 0.3 °C 1013.4 hPa NE 11.3 km/h 25.7 km/h 87% 0 mm
08:19 2.3 °C 0.2 °C 1013.8 hPa ENE 8 km/h 17.7 km/h 86% 0 mm
08:24 2.3 °C 0.2 °C 1013.4 hPa East 8 km/h 20.9 km/h 86% 0 mm
08:34 2.4 °C 0.3 °C 1013.4 hPa ENE 6.4 km/h 14.5 km/h 86% 0 mm
08:44 2.4 °C 0.3 °C 1013.1 hPa NE 8 km/h 19.3 km/h 86% 0 mm
08:49 2.4 °C 0.2 °C 1013.8 hPa NE 8 km/h 20.9 km/h 85% 0 mm
08:54 2.4 °C 0.2 °C 1013.8 hPa NE 14.5 km/h 16.1 km/h 85% 0 mm
09:04 2.4 °C 0.1 °C 1013.4 hPa NE 11.3 km/h 22.5 km/h 85% 0 mm
09:09 2.4 °C 0.1 °C 1013.8 hPa NE 9.7 km/h 20.9 km/h 85% 0 mm
09:14 2.4 °C 0 °C 1013.8 hPa NE 9.7 km/h 19.3 km/h 84% 0 mm
09:19 2.4 °C -0.1 °C 1013.4 hPa ENE 8 km/h 16.1 km/h 84% 0 mm
09:24 2.4 °C 0 °C 1013.4 hPa NE 14.5 km/h 17.7 km/h 84% 0 mm
09:29 2.6 °C 0.1 °C 1013.4 hPa NE 12.9 km/h 17.7 km/h 84% 0 mm
09:34 2.5 °C 0.1 °C 1013.4 hPa NE 9.7 km/h 17.7 km/h 84% 0 mm
09:39 2.4 °C 0 °C 1013.4 hPa NE 9.7 km/h 17.7 km/h 84% 0 mm
09:44 2.5 °C 0.1 °C 1013.8 hPa NE 8 km/h 17.7 km/h 84% 0 mm
09:49 2.4 °C 0 °C 1013.8 hPa NNE 11.3 km/h 17.7 km/h 84% 0 mm
09:54 2.4 °C 0 °C 1013.4 hPa NE 9.7 km/h 20.9 km/h 84% 0 mm
09:59 2.4 °C -0.1 °C 1013.4 hPa ENE 8 km/h 19.3 km/h 84% 0 mm
10:04 2.4 °C 0 °C 1013.4 hPa ENE 8 km/h 17.7 km/h 84% 0 mm
10:09 2.3 °C -0.1 °C 1013.1 hPa NE 9.7 km/h 19.3 km/h 84% 0 mm
10:14 2.3 °C -0.1 °C 1013.1 hPa NE 11.3 km/h 20.9 km/h 84% 0 mm
10:19 2.3 °C -0.1 °C 1012.8 hPa NE 11.3 km/h 22.5 km/h 84% 0 mm
10:24 2.3 °C -0.1 °C 1012.8 hPa NE 12.9 km/h 20.9 km/h 84% 0 mm
10:29 2.4 °C -0.1 °C 1012.8 hPa ENE 16.1 km/h 19.3 km/h 84% 0 mm
10:34 2.4 °C 0 °C 1012.8 hPa NE 4.8 km/h 20.9 km/h 84% 0 mm
10:39 2.5 °C 0.1 °C 1012.8 hPa ENE 9.7 km/h 20.9 km/h 84% 0 mm
10:44 2.5 °C 0.1 °C 1012.8 hPa NE 9.7 km/h 22.5 km/h 84% 0 mm
10:49 2.5 °C 0.1 °C 1012.4 hPa NE 9.7 km/h 22.5 km/h 84% 0 mm
10:54 2.4 °C 0 °C 1012.4 hPa NE 11.3 km/h 20.9 km/h 84% 0 mm
10:59 2.5 °C 0.1 °C 1012.4 hPa NE 4.8 km/h 17.7 km/h 84% 0 mm
11:04 2.6 °C 0.1 °C 1012.4 hPa NE 6.4 km/h 16.1 km/h 84% 0 mm
11:09 2.6 °C 0.2 °C 1012.4 hPa ENE 11.3 km/h 20.9 km/h 84% 0 mm
11:14 2.6 °C 0.2 °C 1012.4 hPa NE 9.7 km/h 20.9 km/h 84% 0 mm
11:19 2.7 °C 0.2 °C 1012.4 hPa NE 6.4 km/h 20.9 km/h 84% 0 mm
11:24 2.7 °C 0.2 °C 1012.4 hPa ENE 8 km/h 20.9 km/h 84% 0 mm
11:29 2.6 °C -0.1 °C 1012.4 hPa NE 9.7 km/h 19.3 km/h 83% 0 mm
11:34 2.6 °C -0.1 °C 1012.1 hPa ENE 17.7 km/h 25.7 km/h 83% 0 mm
11:39 2.6 °C -0.1 °C 1012.1 hPa ENE 14.5 km/h 25.7 km/h 83% 0 mm
11:44 2.7 °C 0.2 °C 1012.1 hPa NE 12.9 km/h 25.7 km/h 84% 0 mm
11:49 2.8 °C 0.2 °C 1011.7 hPa NE 12.9 km/h 22.5 km/h 83% 0 mm
11:54 2.7 °C 0.1 °C 1012.1 hPa NE 14.5 km/h 30.6 km/h 83% 0 mm
11:59 2.7 °C 0.1 °C 1012.1 hPa NE 9.7 km/h 24.1 km/h 83% 0 mm
12:04 2.7 °C -0.1 °C 1012.1 hPa ENE 6.4 km/h 25.7 km/h 82% 0 mm
12:09 2.6 °C -0.2 °C 1012.4 hPa ENE 12.9 km/h 29 km/h 82% 0 mm
12:14 2.6 °C -0.2 °C 1012.4 hPa NNE 12.9 km/h 25.7 km/h 82% 0 mm
12:19 2.6 °C -0.2 °C 1012.1 hPa NE 22.5 km/h 27.4 km/h 82% 0 mm
12:24 2.6 °C -0.2 °C 1011.7 hPa NE 12.9 km/h 27.4 km/h 82% 0 mm
12:29 2.7 °C -0.1 °C 1011.7 hPa NE 14.5 km/h 25.7 km/h 82% 0 mm
12:34 2.7 °C -0.1 °C 1011.7 hPa NE 6.4 km/h 32.2 km/h 82% 0 mm
12:39 2.7 °C -0.3 °C 1011.7 hPa NE 14.5 km/h 32.2 km/h 81% 0 mm
12:44 2.6 °C -0.3 °C 1011.4 hPa NE 14.5 km/h 29 km/h 81% 0 mm
12:49 2.7 °C -0.3 °C 1011.1 hPa NE 12.9 km/h 25.7 km/h 81% 0 mm
12:54 2.8 °C -0.2 °C 1010.7 hPa ENE 19.3 km/h 27.4 km/h 81% 0 mm
12:59 2.8 °C -0.1 °C 1010.4 hPa NE 12.9 km/h 38.6 km/h 81% 0 mm
13:04 2.9 °C -0.2 °C 1010.4 hPa NE 17.7 km/h 38.6 km/h 80% 0 mm
13:09 3.1 °C 0.1 °C 1010.4 hPa NE 16.1 km/h 37 km/h 81% 0 mm
13:14 3.2 °C 0.2 °C 1010.4 hPa ENE 12.9 km/h 29 km/h 81% 0 mm
13:19 3.2 °C 0.1 °C 1010 hPa NE 11.3 km/h 20.9 km/h 80% 0 mm
13:24 3.2 °C 0.1 °C 1010 hPa NE 14.5 km/h 20.9 km/h 80% 0 mm
13:29 3.1 °C 0 °C 1010.4 hPa East 8 km/h 29 km/h 80% 0 mm
13:34 3.1 °C -0.1 °C 1010 hPa ENE 9.7 km/h 29 km/h 80% 0 mm
13:39 3.1 °C -0.1 °C 1010 hPa NE 11.3 km/h 16.1 km/h 80% 0 mm
13:44 2.9 °C -0.3 °C 1010 hPa NNE 12.9 km/h 29 km/h 79% 0 mm
13:49 3.1 °C -0.2 °C 1009.7 hPa NNE 12.9 km/h 22.5 km/h 79% 0 mm
13:54 3.1 °C -0.2 °C 1009.7 hPa NNE 11.3 km/h 27.4 km/h 79% 0 mm
13:59 3.1 °C -0.3 °C 1009.7 hPa NE 14.5 km/h 25.7 km/h 78% 0 mm
14:04 3.2 °C -0.2 °C 1009.7 hPa ENE 6.4 km/h 22.5 km/h 78% 0 mm
14:09 3.2 °C -0.3 °C 1009.4 hPa ENE 12.9 km/h 24.1 km/h 78% 0 mm
14:14 3.2 °C -0.3 °C 1009.4 hPa ENE 12.9 km/h 29 km/h 78% 0 mm
14:19 3.2 °C -0.2 °C 1009.4 hPa ENE 11.3 km/h 29 km/h 78% 0 mm
14:24 3.2 °C -0.4 °C 1009.4 hPa ENE 11.3 km/h 22.5 km/h 77% 0 mm
14:29 3.2 °C -0.5 °C 1009 hPa ENE 11.3 km/h 25.7 km/h 77% 0 mm
14:34 3.3 °C -0.4 °C 1009 hPa ENE 6.4 km/h 20.9 km/h 77% 0 mm
14:39 3.2 °C -0.5 °C 1009 hPa ENE 6.4 km/h 25.7 km/h 77% 0 mm
14:44 3.1 °C -0.6 °C 1009 hPa ENE 9.7 km/h 25.7 km/h 77% 0 mm
14:49 2.9 °C -0.9 °C 1009 hPa ENE 11.3 km/h 24.1 km/h 76% 0 mm
14:54 2.9 °C -0.9 °C 1008.7 hPa SSE 11.3 km/h 24.1 km/h 76% 0 mm
14:59 2.9 °C -0.7 °C 1008.7 hPa NE 6.4 km/h 24.1 km/h 77% 0 mm
15:04 2.9 °C -0.7 °C 1008.7 hPa ENE 9.7 km/h 24.1 km/h 77% 0 mm
15:14 2.8 °C -0.8 °C 1008.4 hPa NE 8 km/h 20.9 km/h 77% 0 mm
15:19 2.8 °C -0.8 °C 1008.4 hPa NE 14.5 km/h 30.6 km/h 77% 0 mm
15:24 2.7 °C -0.9 °C 1008.4 hPa NE 16.1 km/h 30.6 km/h 77% 0 mm
15:29 2.7 °C -0.9 °C 1008 hPa ENE 14.5 km/h 27.4 km/h 77% 0 mm
15:34 2.7 °C -0.9 °C 1008 hPa NE 14.5 km/h 25.7 km/h 77% 0 mm
15:39 2.6 °C -1 °C 1008 hPa NE 14.5 km/h 29 km/h 77% 0 mm
15:44 2.5 °C -1.1 °C 1008 hPa NE 22.5 km/h 32.2 km/h 77% 0 mm
15:49 2.4 °C -1 °C 1008 hPa NE 16.1 km/h 30.6 km/h 78% 0 mm
15:54 2.4 °C -1 °C 1008 hPa NE 16.1 km/h 30.6 km/h 78% 0 mm
15:59 2.5 °C -0.9 °C 1008 hPa NE 14.5 km/h 27.4 km/h 78% 0 mm
16:04 2.5 °C -0.9 °C 1008 hPa NE 14.5 km/h 27.4 km/h 78% 0 mm
16:09 2.4 °C -1 °C 1008 hPa NE 14.5 km/h 27.4 km/h 78% 0 mm
16:14 2.4 °C -1 °C 1008 hPa NE 14.5 km/h 29 km/h 78% 0 mm
16:24 2.3 °C -1.1 °C 1007.7 hPa ENE 12.9 km/h 29 km/h 78% 0 mm
16:29 2.3 °C -1.1 °C 1007.7 hPa NE 12.9 km/h 27.4 km/h 78% 0 mm
16:39 2.3 °C -1.2 °C 1007.7 hPa NE 14.5 km/h 29 km/h 78% 0 mm
16:44 2.2 °C -1.2 °C 1007.7 hPa NE 11.3 km/h 25.7 km/h 78% 0 mm
16:49 2.3 °C -1.2 °C 1007.7 hPa East 9.7 km/h 20.9 km/h 78% 0 mm
16:54 2.2 °C -1.2 °C 1007.7 hPa East 9.7 km/h 25.7 km/h 78% 0 mm
16:59 2.3 °C -1 °C 1007.7 hPa NE 9.7 km/h 25.7 km/h 79% 0 mm
17:04 2.2 °C -1.1 °C 1007.3 hPa NE 11.3 km/h 27.4 km/h 79% 0 mm
17:09 2.2 °C -1.1 °C 1007.3 hPa NE 12.9 km/h 27.4 km/h 79% 0 mm
17:14 2.1 °C -1.2 °C 1007.3 hPa NE 12.9 km/h 33.8 km/h 79% 0 mm
17:19 2.1 °C -1.2 °C 1007.3 hPa NE 14.5 km/h 33.8 km/h 79% 0 mm
17:24 2.1 °C -1.2 °C 1007.3 hPa NE 11.3 km/h 20.9 km/h 79% 0 mm
17:29 2.1 °C -1.2 °C 1007.3 hPa NE 4.8 km/h 27.4 km/h 79% 0 mm
17:34 2.1 °C -1.2 °C 1007.3 hPa East 9.7 km/h 24.1 km/h 79% 0 mm
17:39 2.1 °C -1.2 °C 1007.3 hPa NE 9.7 km/h 19.3 km/h 79% 0 mm
17:44 2 °C -1.1 °C 1007.3 hPa NE 12.9 km/h 30.6 km/h 80% 0 mm
17:49 1.9 °C -1.2 °C 1007 hPa ENE 19.3 km/h 25.7 km/h 80% 0 mm
17:54 1.9 °C -1.2 °C 1007 hPa NE 14.5 km/h 24.1 km/h 80% 0 mm
17:59 1.9 °C -1.2 °C 1007 hPa NE 11.3 km/h 22.5 km/h 80% 0 mm
18:04 1.8 °C -1.3 °C 1006.7 hPa NE 9.7 km/h 27.4 km/h 80% 0 mm
18:09 1.8 °C -1.1 °C 1006.7 hPa NE 12.9 km/h 27.4 km/h 81% 0 mm
18:14 1.7 °C -1.2 °C 1006.7 hPa NE 14.5 km/h 30.6 km/h 81% 0 mm
18:19 1.7 °C -1.2 °C 1006.7 hPa NE 16.1 km/h 33.8 km/h 81% 0 mm
18:24 1.8 °C -1.1 °C 1006.7 hPa NE 14.5 km/h 33.8 km/h 81% 0 mm
18:29 1.7 °C -1 °C 1006.7 hPa NE 14.5 km/h 29 km/h 82% 0 mm
18:34 1.7 °C -1 °C 1006.3 hPa NE 14.5 km/h 25.7 km/h 82% 0 mm
18:39 1.8 °C -1.1 °C 1006.3 hPa NNE 4.8 km/h 25.7 km/h 81% 0 mm
18:44 1.8 °C -1.1 °C 1006 hPa NE 16.1 km/h 32.2 km/h 81% 0 mm
18:49 1.9 °C -1.1 °C 1006 hPa NE 16.1 km/h 32.2 km/h 81% 0 mm
18:54 1.9 °C -1.2 °C 1006 hPa ENE 22.5 km/h 25.7 km/h 80% 0 mm
18:59 1.9 °C -1.2 °C 1005.6 hPa NNE 16.1 km/h 29 km/h 80% 0 mm
19:04 2 °C -1.1 °C 1005.6 hPa NE 12.9 km/h 32.2 km/h 80% 0 mm
19:09 2 °C -1.1 °C 1005.3 hPa NE 11.3 km/h 30.6 km/h 80% 0 mm
19:14 2 °C -1.3 °C 1005.3 hPa ENE 17.7 km/h 33.8 km/h 79% 0 mm
19:19 1.9 °C -1.2 °C 1005.3 hPa NE 16.1 km/h 33.8 km/h 80% 0 mm
19:24 1.9 °C -1.2 °C 1005.3 hPa NE 16.1 km/h 29 km/h 80% 0 mm
19:29 1.8 °C -1.3 °C 1005.3 hPa NE 14.5 km/h 29 km/h 80% 0 mm
19:34 1.7 °C -1.2 °C 1005 hPa NE 14.5 km/h 29 km/h 81% 0 mm
19:39 1.6 °C -1.2 °C 1005 hPa NE 17.7 km/h 35.4 km/h 82% 0 mm
19:44 1.4 °C -1.3 °C 1005 hPa NE 17.7 km/h 35.4 km/h 82% 0 mm
19:49 1.3 °C -1.2 °C 1004.6 hPa NE 12.9 km/h 32.2 km/h 83% 0 mm
19:54 1.3 °C -1.3 °C 1004.6 hPa NE 17.7 km/h 32.2 km/h 83% 0 mm
19:59 1.2 °C -1.2 °C 1004.6 hPa NE 17.7 km/h 32.2 km/h 84% 0 mm
20:04 1.1 °C -1.1 °C 1004.6 hPa NE 14.5 km/h 32.2 km/h 85% 0 mm
20:09 1 °C -1.2 °C 1004.6 hPa NE 14.5 km/h 32.2 km/h 85% 0 mm
20:14 1 °C -1.2 °C 1004.6 hPa NE 16.1 km/h 30.6 km/h 85% 0 mm
20:19 0.9 °C -1.3 °C 1004.6 hPa ENE 30.6 km/h 33.8 km/h 85% 0 mm
20:24 0.9 °C -1.1 °C 1004.6 hPa NNE 22.5 km/h 35.4 km/h 86% 0 mm
20:29 0.9 °C -1.1 °C 1004.6 hPa NE 17.7 km/h 35.4 km/h 86% 0 mm
20:34 0.9 °C -1.2 °C 1004.6 hPa NE 14.5 km/h 33.8 km/h 86% 0 mm
20:39 0.9 °C -1.1 °C 1004.6 hPa NE 12.9 km/h 37 km/h 86% 0 mm
20:44 0.9 °C -1.1 °C 1004.6 hPa NE 25.7 km/h 33.8 km/h 86% 0 mm
20:49 1 °C -1.1 °C 1004.6 hPa ENE 22.5 km/h 37 km/h 86% 0 mm
20:54 0.9 °C -1.1 °C 1004.6 hPa ENE 17.7 km/h 32.2 km/h 86% 0 mm
20:59 0.8 °C -1.2 °C 1004.6 hPa NE 9.7 km/h 33.8 km/h 86% 0 mm
21:04 0.8 °C -1.3 °C 1004.6 hPa NE 16.1 km/h 33.8 km/h 86% 0 mm
21:09 0.7 °C -1.2 °C 1004.6 hPa NE 16.1 km/h 32.2 km/h 87% 0 mm
21:14 0.7 °C -1.2 °C 1004.3 hPa NE 16.1 km/h 33.8 km/h 87% 0 mm
21:19 0.7 °C -1.2 °C 1004.6 hPa NE 17.7 km/h 41.8 km/h 87% 0 mm
21:24 0.6 °C -1.3 °C 1004.6 hPa North 12.9 km/h 24.1 km/h 87% 0 mm
21:29 0.6 °C -1.2 °C 1004.6 hPa NE 11.3 km/h 24.1 km/h 88% 0 mm
21:34 0.4 °C -1.3 °C 1004.6 hPa NE 12.9 km/h 40.2 km/h 88% 0 mm
21:39 0.4 °C -1.3 °C 1004.3 hPa NE 14.5 km/h 40.2 km/h 88% 0 mm
21:44 0.4 °C -1.4 °C 1004.3 hPa NE 16.1 km/h 24.1 km/h 88% 0 mm
21:49 0.3 °C -1.4 °C 1004.3 hPa NE 11.3 km/h 22.5 km/h 88% 0 mm
21:54 0.3 °C -1.5 °C 1004.6 hPa ENE 16.1 km/h 24.1 km/h 88% 0 mm
21:59 0.3 °C -1.5 °C 1004.3 hPa ENE 12.9 km/h 20.9 km/h 88% 0 mm
22:04 0.2 °C -1.4 °C 1004.6 hPa NNE 11.3 km/h 25.7 km/h 89% 0 mm
22:09 0.2 °C -1.4 °C 1004.3 hPa NE 12.9 km/h 25.7 km/h 89% 0 mm
22:14 0.2 °C -1.4 °C 1004.3 hPa NNE 12.9 km/h 22.5 km/h 89% 0 mm
22:19 0.1 °C -1.5 °C 1004.3 hPa NNE 12.9 km/h 22.5 km/h 89% 0 mm
22:24 0.1 °C -1.6 °C 1004.3 hPa NE 11.3 km/h 29 km/h 89% 0 mm
22:29 0.1 °C -1.6 °C 1004.3 hPa NE 11.3 km/h 29 km/h 89% 0 mm
22:34 0.1 °C -1.6 °C 1004.3 hPa NNE 6.4 km/h 25.7 km/h 89% 0 mm
22:39 0 °C -1.6 °C 1004.3 hPa NNE 12.9 km/h 20.9 km/h 89% 0 mm
22:44 0.1 °C -1.6 °C 1003.9 hPa NNE 11.3 km/h 20.9 km/h 89% 0 mm
22:49 0 °C -1.4 °C 1003.9 hPa NNE 16.1 km/h 19.3 km/h 90% 0 mm
22:54 0 °C -1.4 °C 1004.3 hPa NNE 12.9 km/h 24.1 km/h 90% 0 mm
22:59 -0.1 °C -1.5 °C 1003.9 hPa North 19.3 km/h 19.3 km/h 90% 0 mm
23:04 -0.1 °C -1.5 °C 1003.9 hPa NNE 12.9 km/h 19.3 km/h 90% 0 mm
23:09 -0.2 °C -1.6 °C 1003.9 hPa NNE 9.7 km/h 20.9 km/h 90% 0 mm
23:14 -0.2 °C -1.6 °C 1004.3 hPa NNE 22.5 km/h 25.7 km/h 90% 0 mm
23:19 -0.2 °C -1.6 °C 1004.3 hPa NNE 11.3 km/h 25.7 km/h 90% 0 mm
23:24 -0.2 °C -1.6 °C 1004.3 hPa NNE 12.9 km/h 35.4 km/h 90% 0 mm
23:29 -0.2 °C -1.6 °C 1004.3 hPa NNE 11.3 km/h 35.4 km/h 90% 0 mm
23:34 -0.2 °C -1.7 °C 1004.3 hPa NNE 12.9 km/h 29 km/h 90% 0 mm
23:39 -0.2 °C -1.7 °C 1004.6 hPa NNE 14.5 km/h 29 km/h 90% 0 mm
23:44 -0.2 °C -1.7 °C 1004.6 hPa NNE 12.9 km/h 20.9 km/h 90% 0 mm
23:49 -0.3 °C -1.7 °C 1004.6 hPa NNE 12.9 km/h 27.4 km/h 90% 0 mm
23:54 -0.3 °C -1.8 °C 1005 hPa NE 17.7 km/h 20.9 km/h 90% 0 mm
23:59 -0.3 °C -1.8 °C 1005 hPa NNE 14.5 km/h 22.5 km/h 90% 0 mm
Buffalo, New York, USA
Compliments of Weather Underground - 2.25 mb